Airfield :







YOU CAN JOIN US ON...

 
LOGIN :

Register | Disclaimer

   EN    FR    IT 

 









Legend :    VFR   Marginal VFR   IFR   Intensive IFR   Very Intensive IFR
Visi :
Ceiling :
>= 8 km
>= 3000ft
5 to 8 km
1000 to 3000 ft
1500m to 5 km
500 to 1000 ft
800 to 1500m
200 to 500 ft
< 800m
< 200 ft
Symbols :   Thunderstorms  Fog  Heavy snow  Heavy precipitations  Wind > 20 kt






- Airport Elevation : 565 ft
- IATA code : STI


MDST - Cibao Int.

CURRENT METAR :
  • 211900Z 12010KT 090V150 9999 FEW022 SCT300 29/22 Q1011

EXPIRED METARs :
  • 211800Z 13006KT 9999 FEW020 BKN300 29/21 Q1012
  • 211700Z 12008KT 080V140 9999 FEW018 SCT300 28/23 Q1013

TAF TAF MDST
Valid from the 21 at 18:00 until the 22 at 18:00 UTC


211600Z 2118/2218 06015KT 9999 FEW018CB SCT020 SCT070
PROB30 2119/2123 6000 -RA FEW014CB BKN016 BKN070



MET'MAP, your aeronautical weather chart ! - Copyright ORBIFLY December 2007 - Disclaimer

ORBIFLY MET'MAP TEAM :

Programming & Development : Alexandra Zaïnal
Concept & original design : Baudouin d'Aumeries
Assistance for programming : Marc-Olivier Méhu
Technical & hardware support : Manuel Goepfert

Contact : metmap@orbifly.com




SOURCES & CREDITS :

   NOAA